Time;durP1;ratioP1;P1;durP2;ratioP2;P2;SDS_P1;SDS_P2;PMS_P1;PMS_P2;Temp;Humidity;BMP_temperature;BMP_pressure;BME280_temperature;BME280_humidity;BME280_pressure;Samples;Min_cycle;Max_cycle;Signal;HPM_P1;HPM_P2
2022/12/17 13:06:49;;;;;;;113.70;21.77;;;;;;;-1.64;89.38;102272.06;4979465;28;20414;-72
2022/12/17 13:09:30;;;;;;;146.07;22.15;;;;;;;-1.40;88.61;102276.91;5012683;28;20056;-72
2022/12/17 13:12:14;;;;;;;196.65;23.95;;;;;;;-2.15;90.63;102282.88;5008655;28;20103;-72
2022/12/17 13:14:47;;;;;;;225.38;24.90;;;;;;;-2.38;92.88;102278.00;5017626;28;20044;-73
2022/12/17 13:17:27;;;;;;;104.97;20.25;;;;;;;-1.81;91.04;102278.53;5008025;28;20049;-72
2022/12/17 13:20:01;;;;;;;154.93;26.33;;;;;;;-1.93;90.82;102281.69;5008872;28;20060;-73
2022/12/17 13:22:29;;;;;;;282.90;28.23;;;;;;;-2.00;90.26;102285.81;4999418;28;20052;-72
2022/12/17 13:25:14;;;;;;;162.43;22.35;;;;;;;-1.81;90.95;102281.97;5002154;28;20116;-72
2022/12/17 13:27:42;;;;;;;159.15;24.83;;;;;;;-1.52;89.55;102290.34;4979054;28;20069;-72
2022/12/17 13:30:20;;;;;;;355.00;31.70;;;;;;;-1.68;89.35;102288.25;4992559;28;20067;-72
2022/12/17 13:32:57;;;;;;;116.28;22.58;;;;;;;-1.43;88.02;102284.53;4990838;28;20422;-72
2022/12/17 13:35:35;;;;;;;71.47;18.88;;;;;;;-1.53;87.02;102286.91;4993245;28;20046;-72
2022/12/17 13:38:15;;;;;;;87.55;22.23;;;;;;;-1.51;87.87;102287.81;4993278;28;20053;-72
2022/12/17 13:40:44;;;;;;;87.72;24.38;;;;;;;-1.23;86.83;102294.44;4996283;28;20061;-72
2022/12/17 13:43:17;;;;;;;136.77;23.80;;;;;;;-1.34;86.90;102292.47;5009689;28;20509;-72
2022/12/17 13:45:44;;;;;;;126.90;23.23;;;;;;;-1.12;87.18;102292.94;4990284;28;20045;-72
2022/12/17 13:48:21;;;;;;;227.65;26.25;;;;;;;-0.91;86.11;102304.50;4992195;28;20145;-72
2022/12/17 13:50:53;;;;;;;105.75;25.25;;;;;;;-1.38;87.40;102299.25;4982634;28;20041;-72
2022/12/17 13:53:20;;;;;;;105.68;24.55;;;;;;;-1.21;87.22;102297.00;5005917;28;20498;-72
2022/12/17 13:55:51;;;;;;;106.38;20.50;;;;;;;-1.33;88.46;102310.47;4992729;28;20413;-72
2022/12/17 13:58:22;;;;;;;190.23;24.40;;;;;;;-1.37;87.82;102311.28;4982276;28;20140;-72
2022/12/17 14:00:49;;;;;;;192.32;26.50;;;;;;;-2.10;90.56;102319.81;4996618;28;20404;-72
2022/12/17 14:03:20;;;;;;;173.73;23.90;;;;;;;-2.05;91.91;102325.09;5002023;28;20045;-72
2022/12/17 14:05:47;;;;;;;156.63;22.70;;;;;;;-2.08;91.32;102322.44;4992488;28;20421;-72
2022/12/17 14:08:17;;;;;;;386.52;28.65;;;;;;;-2.32;93.01;102325.25;4992107;28;20052;-72
2022/12/17 14:10:50;;;;;;;322.45;29.52;;;;;;;-2.16;92.38;102322.25;4989763;28;20038;-72
2022/12/17 14:13:16;;;;;;;127.25;22.75;;;;;;;-1.54;90.57;102326.31;4997606;28;20041;-72
2022/12/17 14:15:48;;;;;;;231.05;22.65;;;;;;;-1.70;89.83;102320.81;4991972;28;20096;-72
2022/12/17 14:18:18;;;;;;;221.85;17.77;;;;;;;-2.83;93.48;102326.41;4983613;28;20102;-72
2022/12/17 14:20:47;;;;;;;257.40;25.92;;;;;;;-2.54;94.49;102335.78;5002644;28;20050;-72
2022/12/17 14:23:21;;;;;;;142.40;20.88;;;;;;;-2.00;94.98;102334.66;4992501;28;20086;-72
2022/12/17 14:25:48;;;;;;;239.23;29.23;;;;;;;-2.04;91.38;102335.41;4999642;28;20048;-72
2022/12/17 14:28:23;;;;;;;104.93;23.85;;;;;;;-1.99;91.16;102328.66;5013670;28;20091;-72
2022/12/17 14:30:49;;;;;;;107.70;14.13;;;;;;;-3.11;95.63;102335.91;4981748;28;20058;-72
2022/12/17 14:33:27;;;;;;;332.63;25.17;;;;;;;-2.84;97.36;102334.94;4992557;28;20053;-72
2022/12/17 14:35:57;;;;;;;229.13;27.20;;;;;;;-2.98;96.00;102343.13;4991458;28;20516;-73
2022/12/17 14:38:24;;;;;;;100.35;18.95;;;;;;;-3.00;97.06;102349.06;5010265;28;20064;-73
2022/12/17 14:40:51;;;;;;;344.17;29.25;;;;;;;-3.05;97.71;102340.34;4995981;28;20050;-73
2022/12/17 14:43:26;;;;;;;118.97;21.17;;;;;;;-2.43;95.66;102344.66;4990699;28;20038;-73
2022/12/17 14:51:34;;;;;;;314.33;25.65;;;;;;;-2.66;93.54;102351.72;4981889;28;20050;-73
2022/12/17 14:54:20;;;;;;;349.60;25.67;;;;;;;-2.75;93.75;102359.19;4981895;28;20050;-73
2022/12/17 14:56:48;;;;;;;146.25;17.58;;;;;;;-2.73;93.39;102364.34;5006519;28;20073;-72
2022/12/17 14:59:32;;;;;;;177.48;20.10;;;;;;;-2.96;94.74;102367.13;5004735;28;20049;-73
2022/12/17 15:02:01;;;;;;;206.13;24.83;;;;;;;-2.84;94.40;102370.88;5027119;28;20049;-72
2022/12/17 15:04:29;;;;;;;169.57;21.67;;;;;;;-2.83;95.25;102368.34;4988094;28;20048;-73
2022/12/17 15:06:58;;;;;;;206.07;21.63;;;;;;;-2.36;91.67;102372.22;4996417;28;20485;-73
2022/12/17 15:09:24;;;;;;;101.13;19.08;;;;;;;-2.82;93.52;102374.38;5006172;28;20048;-73
2022/12/17 15:11:51;;;;;;;175.43;20.77;;;;;;;-2.76;95.27;102379.66;4981658;28;20050;-73
2022/12/17 15:14:17;;;;;;;94.13;16.85;;;;;;;-2.01;97.81;102370.59;4990655;28;20053;-73
2022/12/17 15:16:44;;;;;;;116.05;20.13;;;;;;;-1.81;96.77;102366.81;5006149;28;20057;-73
2022/12/17 15:19:11;;;;;;;230.00;23.13;;;;;;;-1.85;93.36;102366.72;4996139;28;20128;-72
2022/12/17 15:21:38;;;;;;;80.80;19.80;;;;;;;-1.84;91.89;102371.88;4995069;28;20494;-73
2022/12/17 15:24:11;;;;;;;148.88;20.35;;;;;;;-1.46;88.88;102365.09;4991637;28;20057;-72
2022/12/17 15:26:37;;;;;;;102.80;19.90;;;;;;;-1.42;88.98;102381.47;5001559;28;20426;-72
2022/12/17 15:29:03;;;;;;;277.27;20.00;;;;;;;-1.07;85.23;102377.97;5001532;28;20079;-73
2022/12/17 15:31:30;;;;;;;132.77;11.13;;;;;;;-2.41;88.35;102371.25;5010923;28;20041;-73
2022/12/17 15:33:57;;;;;;;409.77;26.02;;;;;;;-3.06;94.05;102380.50;4989572;28;20053;-73
2022/12/17 15:36:24;;;;;;;414.58;25.98;;;;;;;-3.32;95.44;102378.84;5002719;28;20056;-73
2022/12/17 15:38:50;;;;;;;95.63;15.40;;;;;;;-3.49;96.16;102382.59;4990991;28;20054;-73
2022/12/17 15:44:02;;;;;;;141.70;16.13;;;;;;;-2.54;92.52;102382.00;4993392;28;20053;-73
2022/12/17 15:46:29;;;;;;;147.38;17.52;;;;;;;-2.46;90.23;102383.97;5005787;28;20037;-73
2022/12/17 15:48:55;;;;;;;112.65;16.80;;;;;;;-2.71;91.84;102383.25;5009637;28;20045;-73
2022/12/17 15:51:22;;;;;;;92.72;17.00;;;;;;;-2.29;90.21;102384.41;5009513;28;20477;-73
2022/12/17 15:53:49;;;;;;;75.15;18.08;;;;;;;-2.23;88.89;102384.59;4999927;28;20041;-73
2022/12/17 15:56:19;;;;;;;58.42;17.30;;;;;;;-2.34;89.38;102388.56;5009737;28;20057;-73
2022/12/17 15:58:46;;;;;;;87.70;18.25;;;;;;;-2.56;90.22;102393.94;4993298;28;20053;-73
2022/12/17 16:01:12;;;;;;;80.13;16.88;;;;;;;-3.43;94.52;102403.28;4989564;28;20049;-73
2022/12/17 16:03:39;;;;;;;71.30;16.02;;;;;;;-3.07;95.55;102394.16;5000783;28;20045;-73
2022/12/17 16:06:06;;;;;;;55.45;16.83;;;;;;;-3.01;93.51;102396.06;4990381;28;20045;-73
2022/12/17 16:08:32;;;;;;;60.33;18.35;;;;;;;-2.55;92.39;102400.84;4980295;28;20054;-73
2022/12/17 16:10:59;;;;;;;81.93;16.70;;;;;;;-2.19;90.06;102399.25;4997038;28;20053;-73
2022/12/17 16:13:26;;;;;;;112.65;17.67;;;;;;;-2.10;88.08;102396.91;4992716;28;20045;-73
2022/12/17 16:15:56;;;;;;;123.03;16.45;;;;;;;-2.77;90.86;102396.75;4994357;28;20048;-73
2022/12/17 16:18:22;;;;;;;197.05;19.40;;;;;;;-2.55;90.63;102399.09;4990263;28;20052;-73
2022/12/17 16:20:49;;;;;;;278.92;25.10;;;;;;;-2.63;90.19;102402.31;5001661;28;20066;-73
2022/12/17 16:23:16;;;;;;;280.25;24.80;;;;;;;-2.91;91.45;102407.44;4996581;28;20049;-73
2022/12/17 16:25:42;;;;;;;205.68;19.45;;;;;;;-3.11;92.59;102400.06;5021996;28;20424;-73
2022/12/17 16:28:09;;;;;;;216.00;25.42;;;;;;;-3.84;97.06;102411.38;5004075;28;20048;-73
2022/12/17 16:30:37;;;;;;;179.35;19.02;;;;;;;-3.58;96.32;102425.88;4983054;28;20049;-73
2022/12/17 16:33:03;;;;;;;92.40;16.63;;;;;;;-3.37;95.49;102420.59;4998508;28;20431;-73
2022/12/17 16:35:30;;;;;;;134.00;16.38;;;;;;;-2.81;93.16;102415.50;5004761;28;20064;-73
2022/12/17 16:37:56;;;;;;;98.35;16.85;;;;;;;-2.99;92.54;102410.66;4981915;28;20042;-73
2022/12/17 16:40:23;;;;;;;181.07;20.95;;;;;;;-3.40;94.89;102412.81;5002179;28;20041;-73
2022/12/17 16:42:49;;;;;;;73.95;13.52;;;;;;;-3.67;96.00;102407.66;4993074;28;20049;-73
2022/12/17 16:45:16;;;;;;;100.78;18.77;;;;;;;-3.13;94.24;102411.94;4987911;28;20046;-73
2022/12/17 16:47:43;;;;;;;30.80;6.07;;;;;;;-3.23;93.25;102422.75;4987903;28;20041;-73
2022/12/17 16:50:10;;;;;;;80.22;17.80;;;;;;;-2.65;93.28;102420.22;5018444;28;20324;-73
2022/12/17 16:52:36;;;;;;;104.00;20.92;;;;;;;-2.40;89.84;102426.91;4996365;28;20046;-73
2022/12/17 16:55:03;;;;;;;60.95;15.20;;;;;;;-2.04;89.39;102419.34;5003574;28;20049;-73
2022/12/17 16:57:29;;;;;;;61.40;14.77;;;;;;;-2.91;90.74;102422.84;5010003;28;20107;-73
2022/12/17 16:59:56;;;;;;;87.97;13.95;;;;;;;-3.16;92.44;102427.25;4980508;28;20057;-73
2022/12/17 17:02:22;;;;;;;70.75;17.30;;;;;;;-2.86;92.63;102434.13;5002393;28;20053;-74
2022/12/17 17:04:50;;;;;;;121.85;21.35;;;;;;;-2.66;90.36;102439.03;4989475;28;20054;-74
2022/12/17 17:07:17;;;;;;;58.15;13.77;;;;;;;-2.80;92.13;102435.19;4985698;28;20038;-73
2022/12/17 17:09:43;;;;;;;96.53;17.92;;;;;;;-2.83;90.74;102429.09;5001777;28;20208;-73
2022/12/17 17:12:10;;;;;;;52.50;13.43;;;;;;;-2.90;91.26;102433.19;5000423;28;20049;-73
2022/12/17 17:14:37;;;;;;;156.38;18.30;;;;;;;-3.31;92.25;102442.16;4992540;28;20038;-73
2022/12/17 17:17:03;;;;;;;201.18;20.88;;;;;;;-3.58;92.53;102448.94;4993314;28;20053;-73
2022/12/17 17:19:30;;;;;;;104.22;13.98;;;;;;;-3.59;93.81;102447.22;4993773;28;20052;-73
2022/12/17 17:21:57;;;;;;;68.40;12.93;;;;;;;-3.28;92.36;102442.25;4999761;28;20049;-73
2022/12/17 17:24:24;;;;;;;77.97;14.48;;;;;;;-3.97;95.44;102451.94;5007054;28;20046;-73
2022/12/17 17:26:51;;;;;;;53.20;10.23;;;;;;;-3.90;96.48;102454.69;4993868;28;20050;-73
2022/12/17 17:29:18;;;;;;;42.63;10.95;;;;;;;-3.46;93.43;102457.06;4991882;28;20560;-73
2022/12/17 17:31:45;;;;;;;63.72;16.52;;;;;;;-3.87;94.72;102458.22;5009961;28;20052;-73
2022/12/17 17:34:13;;;;;;;57.25;10.13;;;;;;;-4.23;96.40;102460.41;5010238;28;20145;-73
2022/12/17 17:36:41;;;;;;;37.00;7.35;;;;;;;-3.94;96.13;102464.84;4998933;28;20517;-73
2022/12/17 17:39:09;;;;;;;48.97;9.25;;;;;;;-3.45;94.67;102458.81;4992260;28;20053;-73
2022/12/17 17:41:36;;;;;;;146.23;14.40;;;;;;;-3.65;94.18;102459.81;4993208;28;20046;-73
2022/12/17 17:44:04;;;;;;;123.30;13.65;;;;;;;-3.55;93.23;102459.34;4982856;28;20053;-73
2022/12/17 17:46:31;;;;;;;52.90;14.02;;;;;;;-3.25;92.58;102457.72;4992410;28;20042;-73
2022/12/17 17:48:59;;;;;;;71.25;14.13;;;;;;;-3.25;91.24;102465.44;4992933;28;20508;-72
2022/12/17 17:51:28;;;;;;;51.38;11.48;;;;;;;-3.41;92.22;102468.34;4990526;28;20042;-72
2022/12/17 17:53:55;;;;;;;42.97;10.40;;;;;;;-2.82;90.67;102470.22;5012035;28;20501;-73
2022/12/17 17:56:25;;;;;;;50.55;12.43;;;;;;;-3.21;92.23;102474.09;5028785;28;20075;-73
2022/12/17 17:58:53;;;;;;;67.85;14.68;;;;;;;-2.94;90.31;102469.84;4996172;28;20418;-73
2022/12/17 18:01:21;;;;;;;40.10;12.68;;;;;;;-3.19;91.88;102470.78;5003933;28;20057;-73
2022/12/17 18:03:47;;;;;;;40.58;14.00;;;;;;;-3.06;91.56;102470.31;4994218;28;20046;-73
2022/12/17 18:06:15;;;;;;;38.08;12.43;;;;;;;-2.44;89.85;102470.47;4988347;28;20519;-73
2022/12/17 18:08:42;;;;;;;42.28;12.10;;;;;;;-2.46;87.31;102478.13;4990096;28;20056;-73
2022/12/17 18:11:10;;;;;;;64.05;13.57;;;;;;;-2.87;88.82;102478.59;4997977;28;20045;-73
2022/12/17 18:13:57;;;;;;;45.28;12.27;;;;;;;-2.72;88.61;102481.63;5008311;28;20057;-73
2022/12/17 18:16:27;;;;;;;38.15;9.52;;;;;;;-3.82;93.36;102479.78;5009512;28;20037;-73
2022/12/17 18:18:55;;;;;;;64.10;14.10;;;;;;;-3.24;93.33;102480.00;4997401;28;20099;-73
2022/12/17 18:21:22;;;;;;;44.70;11.98;;;;;;;-2.93;91.63;102479.28;5020601;28;20061;-73
2022/12/17 18:23:48;;;;;;;54.03;14.10;;;;;;;-2.85;89.27;102484.66;5001536;28;20042;-73
2022/12/17 18:26:17;;;;;;;45.70;12.55;;;;;;;-2.96;89.74;102490.31;5012149;28;20045;-73
2022/12/17 18:28:46;;;;;;;52.75;13.30;;;;;;;-3.63;92.78;102497.53;5003616;28;20422;-73
2022/12/17 18:31:17;;;;;;;22.17;8.40;;;;;;;-3.87;94.99;102500.94;4978472;28;20038;-73
2022/12/17 18:33:45;;;;;;;65.13;16.38;;;;;;;-3.89;95.19;102497.44;5016282;28;20394;-73
2022/12/17 18:36:14;;;;;;;77.82;18.98;;;;;;;-3.87;95.05;102509.50;4998078;28;20461;-73
2022/12/17 18:38:41;;;;;;;64.55;13.65;;;;;;;-3.64;94.65;102513.72;4990864;28;20044;-73
2022/12/17 18:43:51;;;;;;;94.88;14.07;;;;;;;-4.14;97.11;102518.78;4996448;28;20050;-73
2022/12/17 18:46:18;;;;;;;61.08;14.55;;;;;;;-3.70;94.95;102520.34;4991993;28;20048;-73
2022/12/17 18:48:44;;;;;;;46.40;13.73;;;;;;;-3.90;95.53;102529.00;5009644;28;20049;-73
2022/12/17 18:51:11;;;;;;;44.58;11.73;;;;;;;-3.75;94.50;102530.44;5016326;28;20131;-73
2022/12/17 18:53:37;;;;;;;200.02;21.05;;;;;;;-4.00;95.00;102525.25;5011746;28;20045;-73
2022/12/17 18:56:07;;;;;;;102.50;15.73;;;;;;;-4.22;96.12;102526.19;5019751;28;20055;-73
2022/12/17 18:58:34;;;;;;;241.90;28.33;;;;;;;-4.38;96.52;102531.53;5002931;28;20041;-72
2022/12/17 19:01:02;;;;;;;188.05;23.67;;;;;;;-4.44;97.48;102537.31;4971234;28;20334;-73
2022/12/17 19:03:28;;;;;;;55.05;14.10;;;;;;;-4.33;97.52;102542.84;4983441;28;20054;-73
2022/12/17 19:05:55;;;;;;;94.82;15.88;;;;;;;-4.66;97.96;102539.00;4979977;28;20049;-73
2022/12/17 19:08:21;;;;;;;36.20;8.85;;;;;;;-4.62;98.38;102545.97;4980108;28;20045;-72
2022/12/17 19:10:48;;;;;;;212.52;22.92;;;;;;;-4.82;98.82;102547.75;4983103;28;20050;-72
2022/12/17 19:13:14;;;;;;;84.40;13.75;;;;;;;-4.58;98.27;102550.41;4987644;28;20045;-72
2022/12/17 19:15:41;;;;;;;50.15;14.32;;;;;;;-3.84;95.44;102555.72;5010754;28;20046;-72
2022/12/17 19:18:08;;;;;;;119.07;16.05;;;;;;;-4.44;95.96;102560.34;5010468;28;20049;-72
2022/12/17 19:20:35;;;;;;;40.90;13.95;;;;;;;-4.41;96.86;102557.03;4996345;28;20057;-72
2022/12/17 19:23:01;;;;;;;52.22;13.90;;;;;;;-3.59;93.90;102565.16;4991563;28;20486;-72
2022/12/17 19:25:28;;;;;;;58.22;13.93;;;;;;;-3.06;91.24;102557.56;5004202;28;20041;-72
2022/12/17 19:27:54;;;;;;;67.72;16.85;;;;;;;-3.22;89.86;102551.91;4981735;28;20486;-72
2022/12/17 19:30:21;;;;;;;39.92;13.88;;;;;;;-2.99;89.17;102556.94;4990813;28;20042;-72
2022/12/17 19:32:47;;;;;;;19.13;6.00;;;;;;;-3.35;89.32;102566.00;4990396;28;20498;-72
2022/12/17 19:35:15;;;;;;;56.35;14.88;;;;;;;-3.59;91.77;102565.16;4981485;28;20513;-72
2022/12/17 19:37:42;;;;;;;81.20;17.17;;;;;;;-3.97;93.07;102554.44;4991151;28;20100;-72
2022/12/17 19:40:09;;;;;;;57.90;17.45;;;;;;;-3.54;92.59;102554.25;5017592;28;20042;-72
2022/12/17 19:42:36;;;;;;;65.25;14.20;;;;;;;-3.12;89.50;102553.94;4981460;28;20041;-72
2022/12/17 19:45:03;;;;;;;55.83;17.02;;;;;;;-3.36;89.40;102553.13;4990641;28;20053;-72
2022/12/17 19:47:30;;;;;;;41.85;13.88;;;;;;;-3.94;92.35;102545.97;4996226;28;20386;-72
2022/12/17 19:49:56;;;;;;;40.15;13.45;;;;;;;-3.95;92.81;102551.91;4984909;28;20054;-72
2022/12/17 19:52:24;;;;;;;54.83;15.30;;;;;;;-4.34;95.68;102553.88;5001497;28;20052;-72
2022/12/17 19:54:51;;;;;;;50.85;15.80;;;;;;;-3.61;94.40;102559.09;4994395;28;20060;-72
2022/12/17 19:57:17;;;;;;;56.50;16.80;;;;;;;-3.54;93.04;102566.19;4989015;28;20049;-72
2022/12/17 19:59:43;;;;;;;58.53;15.52;;;;;;;-3.61;91.71;102571.91;4998590;28;20048;-72
2022/12/17 20:02:10;;;;;;;53.17;16.35;;;;;;;-3.31;91.66;102575.53;5026913;28;20049;-72
2022/12/17 20:04:36;;;;;;;74.57;16.48;;;;;;;-3.26;90.60;102571.44;5008493;28;20046;-72
2022/12/17 20:07:03;;;;;;;77.10;15.63;;;;;;;-3.64;90.72;102577.81;4998077;28;20399;-72
2022/12/17 20:09:31;;;;;;;173.65;20.83;;;;;;;-4.15;94.38;102584.50;4989677;28;20053;-72
2022/12/17 20:11:57;;;;;;;50.17;10.57;;;;;;;-4.37;96.07;102578.50;4981509;28;20414;-72
2022/12/17 20:14:25;;;;;;;64.38;18.52;;;;;;;-4.06;95.44;102579.69;4990340;28;20054;-72
2022/12/17 20:16:54;;;;;;;63.20;21.23;;;;;;;-3.74;93.85;102577.44;4991084;28;20128;-72
2022/12/17 20:19:22;;;;;;;40.85;12.98;;;;;;;-4.21;94.72;102581.69;5014401;28;20082;-72
2022/12/17 20:21:49;;;;;;;61.25;16.85;;;;;;;-3.85;95.01;102586.44;5012935;28;20049;-72
2022/12/17 20:24:17;;;;;;;70.22;17.67;;;;;;;-3.85;93.51;102577.06;5003354;28;20057;-72
2022/12/17 20:26:48;;;;;;;89.10;33.53;;;;;;;-3.54;92.96;102579.00;4979737;28;20062;-72
2022/12/17 20:29:14;;;;;;;63.72;18.30;;;;;;;-3.56;92.81;102578.09;4989066;28;20494;-72
2022/12/17 20:31:41;;;;;;;90.80;16.83;;;;;;;-4.06;95.49;102574.56;4990168;28;20050;-72
2022/12/17 20:34:09;;;;;;;49.15;17.13;;;;;;;-3.83;94.70;102577.09;4988966;28;20107;-72
2022/12/17 20:36:35;;;;;;;139.80;29.35;;;;;;;-3.93;93.85;102583.59;4994419;28;20534;-72
2022/12/17 20:39:02;;;;;;;118.38;17.58;;;;;;;-4.18;95.20;102588.63;5002427;28;20401;-72
2022/12/17 20:41:30;;;;;;;76.65;19.63;;;;;;;-3.34;93.14;102593.41;5001257;28;20133;-72
2022/12/17 20:44:02;;;;;;;109.43;21.00;;;;;;;-2.94;89.51;102585.34;5009610;28;20052;-72
2022/12/17 20:46:28;;;;;;;50.13;17.45;;;;;;;-2.91;89.04;102587.13;5009681;28;20045;-70
2022/12/17 20:48:54;;;;;;;70.03;19.05;;;;;;;-2.84;88.56;102583.91;5000616;28;20107;-70
2022/12/17 20:51:23;;;;;;;80.97;18.77;;;;;;;-2.77;88.67;102584.16;5021871;28;20045;-70
2022/12/17 20:53:51;;;;;;;64.60;16.17;;;;;;;-2.43;85.93;102591.22;5009425;28;20417;-70
2022/12/17 20:56:20;;;;;;;44.75;14.80;;;;;;;-3.29;88.37;102586.75;4994701;28;20453;-70
2022/12/17 20:58:47;;;;;;;44.15;15.73;;;;;;;-3.96;92.83;102584.38;4998840;28;20049;-70
2022/12/17 21:01:17;;;;;;;58.45;18.27;;;;;;;-3.40;90.45;102585.50;5012423;28;20045;-70
2022/12/17 21:03:45;;;;;;;60.78;18.52;;;;;;;-2.97;88.40;102596.38;4998294;28;20549;-70
2022/12/17 21:06:13;;;;;;;65.35;18.63;;;;;;;-3.25;87.29;102596.25;4999661;28;20049;-70
2022/12/17 21:08:40;;;;;;;68.60;18.77;;;;;;;-3.47;88.31;102591.22;4988362;28;20049;-70
2022/12/17 21:11:08;;;;;;;63.90;18.77;;;;;;;-3.38;88.98;102594.13;5000034;28;20280;-70
2022/12/17 21:13:36;;;;;;;63.15;20.48;;;;;;;-3.33;87.52;102599.41;5002652;28;20064;-70
2022/12/17 21:16:06;;;;;;;63.42;19.38;;;;;;;-3.51;88.01;102604.78;4994926;28;20049;-70
2022/12/17 21:18:34;;;;;;;49.90;16.95;;;;;;;-3.19;88.15;102608.44;5000610;28;20049;-70
2022/12/17 21:21:03;;;;;;;49.95;15.85;;;;;;;-3.20;87.57;102611.81;4992826;28;20498;-70
2022/12/17 21:23:31;;;;;;;55.40;18.13;;;;;;;-2.81;86.73;102608.03;4977068;28;20050;-70
2022/12/17 21:25:59;;;;;;;52.88;18.85;;;;;;;-2.46;85.02;102606.56;4980966;28;20057;-70
2022/12/17 21:28:25;;;;;;;50.47;17.15;;;;;;;-2.51;84.67;102623.50;4990060;28;20042;-70
2022/12/17 21:30:52;;;;;;;56.60;14.38;;;;;;;-3.39;87.08;102617.13;4994695;28;20192;-70
2022/12/17 21:33:18;;;;;;;58.58;18.65;;;;;;;-3.51;88.25;102618.44;4989086;28;20049;-70
2022/12/17 21:35:46;;;;;;;144.05;21.08;;;;;;;-3.98;91.29;102623.53;4989095;28;20050;-70
2022/12/17 21:38:13;;;;;;;69.30;20.10;;;;;;;-4.16;91.65;102625.41;4979493;28;20050;-70
2022/12/17 21:40:40;;;;;;;72.43;20.15;;;;;;;-4.07;91.01;102630.91;4992143;28;20068;-70
2022/12/17 21:43:07;;;;;;;50.65;17.90;;;;;;;-4.32;92.53;102634.19;4999420;28;20045;-70
2022/12/17 21:45:38;;;;;;;59.40;18.42;;;;;;;-3.95;91.71;102637.34;4986506;28;20045;-70
2022/12/17 21:48:05;;;;;;;60.90;19.35;;;;;;;-3.54;88.56;102637.97;4977502;28;20131;-70
2022/12/17 21:50:32;;;;;;;58.33;19.25;;;;;;;-4.22;91.14;102631.19;4995481;28;20089;-70
2022/12/17 21:53:00;;;;;;;68.93;18.35;;;;;;;-4.53;92.65;102638.47;4983895;28;20139;-70
2022/12/17 21:55:27;;;;;;;45.58;17.92;;;;;;;-4.23;90.77;102628.56;5009613;28;20049;-70
2022/12/17 21:57:53;;;;;;;80.85;18.85;;;;;;;-4.67;93.84;102629.38;5009735;28;20852;-70
2022/12/17 22:00:20;;;;;;;44.08;15.43;;;;;;;-4.20;91.66;102623.53;5005678;28;20493;-70
2022/12/17 22:02:47;;;;;;;85.53;19.63;;;;;;;-4.46;92.76;102628.53;4994429;28;20045;-70
2022/12/17 22:05:14;;;;;;;57.42;15.60;;;;;;;-4.25;91.55;102641.28;5014670;28;20383;-70
2022/12/17 22:07:40;;;;;;;52.80;16.60;;;;;;;-3.69;89.10;102642.53;4997692;28;20049;-70
2022/12/17 22:10:09;;;;;;;129.70;18.70;;;;;;;-3.89;88.75;102640.97;4991977;28;20046;-70
2022/12/17 22:15:19;;;;;;;109.40;15.82;;;;;;;-4.25;90.14;102646.41;4995865;28;20065;-70
2022/12/17 22:17:46;;;;;;;74.53;15.07;;;;;;;-4.75;90.87;102651.22;5008096;28;20045;-70
2022/12/17 22:20:12;;;;;;;32.58;12.77;;;;;;;-5.11;94.09;102651.47;5009974;28;20052;-70
2022/12/17 22:22:39;;;;;;;46.97;16.10;;;;;;;-4.81;93.75;102656.97;4992359;28;20053;-70
2022/12/17 22:25:06;;;;;;;32.83;12.88;;;;;;;-4.83;92.90;102668.81;4987991;28;20054;-70
2022/12/17 22:27:34;;;;;;;49.58;15.10;;;;;;;-4.59;92.45;102666.41;4982578;28;20073;-70
2022/12/17 22:32:59;;;;;;;50.33;11.50;;;;;;;-4.36;90.15;102660.47;4991448;28;20057;-70
2022/12/17 22:35:27;;;;;;;31.37;12.00;;;;;;;-4.24;88.34;102663.53;4991627;28;20057;-70
2022/12/17 22:37:53;;;;;;;41.72;15.27;;;;;;;-4.19;88.33;102662.03;4991971;28;20298;-70
2022/12/17 22:40:21;;;;;;;55.53;13.63;;;;;;;-4.62;89.51;102669.69;4990407;28;20478;-70
2022/12/17 22:45:33;;;;;;;46.45;11.25;;;;;;;-4.72;91.21;102676.94;4993150;28;20056;-70
2022/12/17 22:47:59;;;;;;;44.58;12.77;;;;;;;-4.77;90.38;102681.00;4991665;28;20517;-70
2022/12/17 22:50:26;;;;;;;54.70;14.68;;;;;;;-4.50;90.21;102679.56;4991911;28;20226;-70
2022/12/17 22:52:52;;;;;;;40.28;14.10;;;;;;;-4.25;89.20;102686.53;4982213;28;20053;-70
2022/12/17 22:55:19;;;;;;;44.83;15.90;;;;;;;-4.38;89.00;102677.50;4990948;28;20061;-70
2022/12/17 22:57:45;;;;;;;43.08;15.07;;;;;;;-4.40;89.05;102681.69;4992170;28;20052;-70
2022/12/17 23:00:20;;;;;;;25.38;7.88;;;;;;;-4.61;88.52;102686.81;4990612;28;20531;-70
2022/12/17 23:02:47;;;;;;;57.85;13.60;;;;;;;-4.78;91.24;102681.81;5006049;28;20041;-70
2022/12/17 23:05:14;;;;;;;73.88;11.88;;;;;;;-4.54;89.35;102678.56;5000426;28;20575;-70
2022/12/17 23:07:40;;;;;;;38.58;14.43;;;;;;;-4.25;87.65;102682.28;5004176;28;20045;-70
2022/12/17 23:10:07;;;;;;;49.22;16.27;;;;;;;-4.05;87.92;102683.06;4994545;28;20418;-70
2022/12/17 23:12:53;;;;;;;54.25;16.73;;;;;;;-3.84;86.42;102675.31;4990793;28;20041;-70
2022/12/17 23:15:24;;;;;;;54.80;16.45;;;;;;;-4.52;87.98;102692.31;5003262;28;20088;-70
2022/12/17 23:17:52;;;;;;;36.70;13.95;;;;;;;-4.62;90.87;102685.03;5015670;28;20095;-70
2022/12/17 23:20:19;;;;;;;51.15;18.55;;;;;;;-4.37;88.51;102691.16;5014109;28;20053;-70
2022/12/17 23:22:46;;;;;;;64.70;17.77;;;;;;;-4.73;90.17;102688.00;4990544;28;20066;-70
2022/12/17 23:25:13;;;;;;;39.35;13.13;;;;;;;-4.74;90.24;102686.25;4980967;28;20425;-70
2022/12/17 23:27:40;;;;;;;38.53;13.10;;;;;;;-4.94;90.58;102678.59;5002099;28;20045;-70
2022/12/17 23:30:09;;;;;;;41.67;13.57;;;;;;;-5.28;92.38;102680.53;5003770;28;20053;-70
2022/12/17 23:32:37;;;;;;;26.30;9.75;;;;;;;-5.36;92.79;102684.47;4996958;28;20457;-70
2022/12/17 23:35:05;;;;;;;82.05;22.95;;;;;;;-5.40;93.03;102685.13;4991600;28;20054;-70
2022/12/17 23:37:31;;;;;;;48.65;15.95;;;;;;;-5.16;92.96;102677.63;4986308;28;20494;-70
2022/12/17 23:39:58;;;;;;;50.80;12.45;;;;;;;-4.69;90.29;102679.66;4995075;28;20053;-70
2022/12/17 23:42:24;;;;;;;30.98;11.13;;;;;;;-4.68;89.99;102683.94;4993866;28;20135;-70
2022/12/17 23:44:51;;;;;;;60.53;20.70;;;;;;;-5.08;90.85;102686.50;5001974;28;20065;-70
2022/12/17 23:47:17;;;;;;;39.47;14.68;;;;;;;-4.54;88.98;102686.22;4989052;28;20041;-70
2022/12/17 23:49:45;;;;;;;42.60;13.30;;;;;;;-4.23;87.81;102680.66;5007894;28;20516;-70
2022/12/17 23:52:11;;;;;;;49.88;15.45;;;;;;;-4.31;86.99;102684.59;4991891;28;20053;-69
2022/12/17 23:54:38;;;;;;;45.88;12.35;;;;;;;-4.75;87.80;102684.47;4999608;28;20042;-70
2022/12/17 23:57:04;;;;;;;90.95;20.63;;;;;;;-5.61;92.80;102691.81;4997972;28;20042;-69
2022/12/17 23:59:31;;;;;;;36.63;13.25;;;;;;;-5.21;91.73;102694.47;4982418;28;21132;-69
